Time;durP1;ratioP1;P1;durP2;ratioP2;P2;SDS_P1;SDS_P2;PMS_P1;PMS_P2;Temp;Humidity;BMP_temperature;BMP_pressure;BME280_temperature;BME280_humidity;BME280_pressure;Samples;Min_cycle;Max_cycle;Signal;HPM_P1;HPM_P2
2021/08/08 00:00:07;;;;;;;;;;;;;;;14.06;84.96;96323.97;30001;972;1899;-68
2021/08/08 00:00:41;;;;;;;;;;;;;;;14.05;84.91;96316.91;30001;982;1763;-68
2021/08/08 00:01:11;;;;;;;;;;;;;;;14.05;85.13;96327.03;30001;982;1876;-69
2021/08/08 00:01:42;;;;;;;;;;;;;;;14.05;85.81;96322.38;30001;982;1885;-68
2021/08/08 00:02:13;;;;;;;;;;;;;;;14.04;85.93;96323.50;30001;983;1880;-68
2021/08/08 00:02:44;;;;;;;;;;;;;;;14.03;85.72;96318.38;30001;985;1866;-67
2021/08/08 00:03:16;;;;;;;;;;;;;;;14.02;85.85;96316.78;30001;983;1879;-69
2021/08/08 00:03:47;;;;;;;;;;;;;;;14.03;85.74;96319.16;30001;983;1884;-71
2021/08/08 00:04:18;;;;;;;;;;;;;;;14.03;85.44;96319.16;30001;983;1788;-69
2021/08/08 00:04:49;;;;;;;;;;;;;;;14.11;84.86;96314.00;30001;983;1884;-70
2021/08/08 00:05:20;;;;;;;;;;;;;;;14.13;84.32;96309.81;30001;983;1880;-68
2021/08/08 00:05:51;;;;;;;;;;;;;;;14.13;84.22;96314.47;30001;983;1867;-67
2021/08/08 00:06:22;;;;;;;;;;;;;;;14.12;84.07;96310.94;30001;983;1876;-67
2021/08/08 00:06:53;;;;;;;;;;;;;;;14.14;84.32;96318.81;30001;983;1885;-57
2021/08/08 00:07:24;;;;;;;;;;;;;;;14.17;83.97;96313.50;30001;982;1881;-70
2021/08/08 00:07:55;;;;;;;;;;;;;;;14.17;83.81;96312.69;30001;982;1885;-67
2021/08/08 00:08:29;;;;;;;;;;;;;;;14.16;83.92;96311.91;30001;982;1880;-63
2021/08/08 00:09:00;;;;;;;;;;;;;;;14.15;84.09;96309.50;30001;982;1885;-71
2021/08/08 00:09:31;;;;;;;;;;;;;;;14.14;84.04;96305.16;30001;983;1880;-59
2021/08/08 00:10:06;;;;;;;;;;;;;;;14.15;84.34;96309.50;30001;983;1884;-67
2021/08/08 00:10:37;;;;;;;;;;;;;;;14.14;84.49;96310.63;30001;983;1880;-69
2021/08/08 00:11:08;;;;;;;;;;;;;;;14.13;84.40;96307.09;30001;983;1866;-68
2021/08/08 00:11:39;;;;;;;;;;;;;;;14.14;84.24;96307.91;30001;983;1875;-58
2021/08/08 00:12:10;;;;;;;;;;;;;;;14.14;84.03;96310.63;30001;983;1884;-69
2021/08/08 00:12:42;;;;;;;;;;;;;;;14.15;84.09;96309.50;30001;983;1880;-68
2021/08/08 00:13:13;;;;;;;;;;;;;;;14.15;83.92;96309.50;30001;983;1884;-60
2021/08/08 00:13:45;;;;;;;;;;;;;;;14.17;83.71;96315.41;30001;983;1880;-58
2021/08/08 00:14:16;;;;;;;;;;;;;;;14.18;83.74;96308.84;30001;983;1885;-70
2021/08/08 00:14:47;;;;;;;;;;;;;;;14.16;83.70;96300.19;30001;982;1880;-70
2021/08/08 00:15:18;;;;;;;;;;;;;;;14.15;84.17;96314.94;30001;963;1904;-60
2021/08/08 00:15:48;;;;;;;;;;;;;;;14.12;84.36;96315.59;30001;982;1880;-61
2021/08/08 00:16:19;;;;;;;;;;;;;;;14.09;84.55;96317.84;30001;982;1867;-70
2021/08/08 00:16:50;;;;;;;;;;;;;;;14.08;84.59;96312.72;30001;982;1876;-62
2021/08/08 00:17:21;;;;;;;;;;;;;;;14.08;84.56;96315.47;30001;983;1884;-60
2021/08/08 00:17:52;;;;;;;;;;;;;;;14.06;84.51;96315.00;30001;983;1880;-69
2021/08/08 00:18:23;;;;;;;;;;;;;;;14.04;84.73;96312.59;30001;983;1884;-69
2021/08/08 00:18:54;;;;;;;;;;;;;;;14.03;84.80;96313.72;30001;983;1862;-69
2021/08/08 00:19:25;;;;;;;;;;;;;;;14.01;84.82;96315.97;30001;983;1880;-68
2021/08/08 00:19:56;;;;;;;;;;;;;;;14.00;84.87;96319.81;30001;983;1880;-61
2021/08/08 00:20:27;;;;;;;;;;;;;;;13.99;85.10;96318.22;30001;983;1867;-74
2021/08/08 00:20:58;;;;;;;;;;;;;;;13.97;85.22;96320.47;30001;983;1875;-69
2021/08/08 00:21:29;;;;;;;;;;;;;;;13.94;85.53;96321.13;30001;982;1884;-69
2021/08/08 00:22:00;;;;;;;;;;;;;;;13.92;85.62;96317.94;30001;982;1880;-61
2021/08/08 00:22:31;;;;;;;;;;;;;;;13.91;85.76;96327.25;30001;982;1885;-69
2021/08/08 00:23:02;;;;;;;;;;;;;;;13.90;85.77;96325.63;30001;982;1880;-68
2021/08/08 00:23:34;;;;;;;;;;;;;;;13.87;85.57;96331.75;30001;982;1868;-61
2021/08/08 00:24:05;;;;;;;;;;;;;;;13.86;85.84;96330.16;30001;982;1876;-70
2021/08/08 00:24:35;;;;;;;;;;;;;;;13.84;85.92;96337.09;30001;986;1876;-60
2021/08/08 00:25:09;;;;;;;;;;;;;;;13.82;86.08;96333.88;30001;983;1884;-69
2021/08/08 00:25:40;;;;;;;;;;;;;;;13.80;86.15;96342.37;30001;983;1880;-71
2021/08/08 00:26:11;;;;;;;;;;;;;;;13.80;86.39;96342.37;30001;983;1884;-62
2021/08/08 00:26:41;;;;;;;;;;;;;;;13.78;86.17;96339.19;30001;973;1900;-61
2021/08/08 00:27:13;;;;;;;;;;;;;;;13.79;86.53;96346.25;30001;983;1885;-69
2021/08/08 00:27:44;;;;;;;;;;;;;;;13.77;86.82;96348.50;30001;983;1880;-70
2021/08/08 00:28:15;;;;;;;;;;;;;;;13.78;86.88;96358.28;30001;983;1885;-70
2021/08/08 00:28:49;;;;;;;;;;;;;;;13.75;86.97;96345.28;30001;983;1863;-71
2021/08/08 00:29:20;;;;;;;;;;;;;;;13.75;87.04;96350.75;30001;982;1880;-71
2021/08/08 00:29:51;;;;;;;;;;;;;;;13.73;87.31;96347.53;30001;982;1880;-69
2021/08/08 00:30:25;;;;;;;;;;;;;;;13.73;87.14;96350.25;30001;985;1875;-70
2021/08/08 00:30:58;;;;;;;;;;;;;;;13.76;86.93;96352.34;30001;982;1885;-70
2021/08/08 00:31:29;;;;;;;;;;;;;;;13.77;86.80;96343.03;30001;982;1881;-62
2021/08/08 00:32:00;;;;;;;;;;;;;;;13.76;86.71;96341.44;30001;982;1885;-60
2021/08/08 00:32:31;;;;;;;;;;;;;;;13.76;86.77;96341.44;30001;983;1880;-60
2021/08/08 00:33:02;;;;;;;;;;;;;;;13.76;86.93;96346.88;30001;983;1884;-69
2021/08/08 00:33:33;;;;;;;;;;;;;;;13.76;86.80;96346.88;30001;986;1850;-61
2021/08/08 00:34:05;;;;;;;;;;;;;;;13.76;86.84;96341.44;30001;983;1876;-70
2021/08/08 00:34:36;;;;;;;;;;;;;;;13.77;86.77;96345.75;30001;983;1876;-59
2021/08/08 00:35:08;;;;;;;;;;;;;;;13.76;87.04;96346.88;30001;983;1880;-70
2021/08/08 00:35:42;;;;;;;;;;;;;;;13.77;86.82;96337.59;30001;983;1875;-60
2021/08/08 00:36:13;;;;;;;;;;;;;;;13.79;86.93;96334.53;30001;983;1863;-68
2021/08/08 00:36:44;;;;;;;;;;;;;;;13.80;86.63;96330.69;30001;982;1871;-69
2021/08/08 00:37:15;;;;;;;;;;;;;;;13.81;86.38;96338.53;30001;982;1880;-62
2021/08/08 00:37:48;;;;;;;;;;;;;;;13.81;86.28;96333.06;30001;982;1876;-59
2021/08/08 00:38:19;;;;;;;;;;;;;;;13.82;86.40;96322.97;30001;982;1880;-69
2021/08/08 00:38:49;;;;;;;;;;;;;;;13.82;86.21;96334.69;30001;982;1876;-62
2021/08/08 00:39:21;;;;;;;;;;;;;;;13.83;86.29;96330.81;30001;983;1783;-69
2021/08/08 00:39:52;;;;;;;;;;;;;;;13.83;86.28;96335.47;30001;983;1875;-59
2021/08/08 00:40:24;;;;;;;;;;;;;;;13.83;86.39;96333.56;30001;983;1880;-69
2021/08/08 00:40:58;;;;;;;;;;;;;;;13.83;86.25;96341.72;30001;983;1875;-62
2021/08/08 00:41:29;;;;;;;;;;;;;;;13.84;86.29;96343.34;30001;983;1862;-69
2021/08/08 00:42:00;;;;;;;;;;;;;;;13.85;86.24;96341.41;30001;983;1871;-61
2021/08/08 00:42:31;;;;;;;;;;;;;;;13.85;86.40;96346.88;30001;983;1880;-70
2021/08/08 00:43:02;;;;;;;;;;;;;;;13.85;86.37;96339.47;30001;983;1779;-69
2021/08/08 00:43:33;;;;;;;;;;;;;;;13.83;86.55;96336.28;30001;983;1880;-69
2021/08/08 00:44:04;;;;;;;;;;;;;;;13.84;86.49;96337.88;30001;982;1876;-68
2021/08/08 00:44:35;;;;;;;;;;;;;;;13.85;86.23;96335.94;30001;982;1880;-60
2021/08/08 00:45:10;;;;;;;;;;;;;;;13.85;85.75;96339.47;30001;982;1876;-68
2021/08/08 00:45:40;;;;;;;;;;;;;;;13.86;85.78;96335.59;30001;982;1881;-70
2021/08/08 00:46:11;;;;;;;;;;;;;;;13.87;85.66;96337.19;30001;982;1876;-60
2021/08/08 00:46:42;;;;;;;;;;;;;;;13.93;85.50;96340.56;30001;983;1862;-68
2021/08/08 00:47:14;;;;;;;;;;;;;;;13.95;84.92;96336.38;30001;983;1871;-59
2021/08/08 00:47:45;;;;;;;;;;;;;;;13.95;85.03;96341.81;30001;983;1879;-71
2021/08/08 00:48:17;;;;;;;;;;;;;;;13.95;85.06;96336.38;30001;983;1876;-62
2021/08/08 00:48:49;;;;;;;;;;;;;;;13.92;85.37;96337.03;30001;983;1880;-63
2021/08/08 00:49:20;;;;;;;;;;;;;;;13.90;86.01;96342.00;30001;983;1876;-62
2021/08/08 00:49:50;;;;;;;;;;;;;;;13.88;86.05;96338.81;30001;983;1880;-69
2021/08/08 00:50:21;;;;;;;;;;;;;;;13.87;85.94;96342.66;30001;983;1876;-69
2021/08/08 00:50:53;;;;;;;;;;;;;;;13.86;85.88;96343.78;30001;983;1880;-63
2021/08/08 00:51:26;;;;;;;;;;;;;;;13.85;85.77;96342.22;30001;983;1876;-63
2021/08/08 00:51:57;;;;;;;;;;;;;;;13.85;85.90;96350.37;30001;982;1863;-71
2021/08/08 00:52:28;;;;;;;;;;;;;;;13.85;85.91;96350.37;30001;982;1872;-70
2021/08/08 00:52:59;;;;;;;;;;;;;;;13.83;86.13;96341.72;30001;982;1880;-61
2021/08/08 00:53:30;;;;;;;;;;;;;;;13.84;86.24;96343.34;30001;982;1876;-61
2021/08/08 00:54:01;;;;;;;;;;;;;;;13.85;86.06;96344.13;30001;983;1862;-70
2021/08/08 00:54:32;;;;;;;;;;;;;;;13.83;86.00;96344.47;30001;983;1871;-69
2021/08/08 00:55:04;;;;;;;;;;;;;;;13.84;86.04;96351.50;30001;983;1880;-71
2021/08/08 00:55:35;;;;;;;;;;;;;;;13.83;85.79;96344.47;30001;983;1875;-61
2021/08/08 00:56:05;;;;;;;;;;;;;;;13.85;85.61;96349.59;30001;983;1880;-70
2021/08/08 00:56:38;;;;;;;;;;;;;;;13.85;85.64;96344.94;30001;983;1876;-70
2021/08/08 00:57:10;;;;;;;;;;;;;;;13.83;85.84;96352.63;30001;983;1880;-60
2021/08/08 00:57:41;;;;;;;;;;;;;;;13.83;85.82;96355.38;30001;983;1876;-68
2021/08/08 00:58:11;;;;;;;;;;;;;;;13.83;85.80;96349.91;30001;983;1880;-69
2021/08/08 00:58:42;;;;;;;;;;;;;;;13.85;85.63;96350.37;30001;983;1876;-65
2021/08/08 00:59:13;;;;;;;;;;;;;;;13.85;85.80;96358.56;30001;982;1863;-62
2021/08/08 00:59:44;;;;;;;;;;;;;;;13.86;85.66;96353.91;30001;982;1872;-69
2021/08/08 01:00:16;;;;;;;;;;;;;;;13.86;85.80;96357.41;30001;982;1881;-61
2021/08/08 01:00:48;;;;;;;;;;;;;;;13.86;85.44;96360.13;30001;982;1876;-61
2021/08/08 01:01:23;;;;;;;;;;;;;;;13.85;85.69;96361.28;30001;982;1881;-61
2021/08/08 01:01:55;;;;;;;;;;;;;;;13.85;85.50;96361.28;30001;983;1875;-69
2021/08/08 01:02:27;;;;;;;;;;;;;;;13.85;85.63;96366.75;30001;986;1871;-61
2021/08/08 01:03:01;;;;;;;;;;;;;;;13.88;85.08;96360.63;30001;983;1880;-61
2021/08/08 01:03:33;;;;;;;;;;;;;;;13.90;84.64;96355.63;30001;983;1875;-69
2021/08/08 01:04:05;;;;;;;;;;;;;;;13.92;84.47;96367.03;30001;983;1880;-63
2021/08/08 01:04:39;;;;;;;;;;;;;;;13.92;84.56;96361.56;30001;983;1858;-71
2021/08/08 01:05:10;;;;;;;;;;;;;;;13.90;84.85;96361.09;30001;970;1895;-64
2021/08/08 01:05:49;;;;;;;;;;;;;;;13.89;85.04;96362.22;30001;983;1853;-71
2021/08/08 01:06:37;;;;;;;;;;;;;;;13.89;85.08;96361.41;30001;983;1880;-70
2021/08/08 01:07:28;;;;;;;;;;;;;;;13.89;85.03;96362.22;30001;982;1876;-69
2021/08/08 01:08:04;;;;;;;;;;;;;;;13.90;84.90;96357.56;30001;982;1876;-72
2021/08/08 01:08:41;;;;;;;;;;;;;;;13.88;85.10;96357.87;30001;982;1876;-62
2021/08/08 01:09:13;;;;;;;;;;;;;;;13.88;84.86;96357.09;30001;983;1880;-68
2021/08/08 01:09:48;;;;;;;;;;;;;;;13.88;84.24;96363.34;30001;983;1858;-63
2021/08/08 01:10:19;;;;;;;;;;;;;;;13.86;84.13;96357.41;30001;983;1876;-70
2021/08/08 01:10:51;;;;;;;;;;;;;;;13.86;84.17;96360.13;30001;983;1876;-62
2021/08/08 01:11:23;;;;;;;;;;;;;;;13.86;84.19;96356.66;30001;983;1880;-63
2021/08/08 01:11:56;;;;;;;;;;;;;;;13.86;84.20;96367.56;30001;983;1858;-70
2021/08/08 01:12:28;;;;;;;;;;;;;;;13.87;84.31;96358.22;30001;983;1876;-62
2021/08/08 01:12:59;;;;;;;;;;;;;;;13.87;84.55;96364.47;30001;983;1876;-61
2021/08/08 01:13:30;;;;;;;;;;;;;;;13.84;84.68;96359.69;30001;982;1880;-60
2021/08/08 01:14:02;;;;;;;;;;;;;;;13.86;84.69;96367.56;30001;982;1876;-68
2021/08/08 01:14:33;;;;;;;;;;;;;;;13.86;84.78;96362.88;30001;982;1880;-72
2021/08/08 01:15:06;;;;;;;;;;;;;;;13.86;84.52;96364.81;30001;982;1876;-69
2021/08/08 01:15:39;;;;;;;;;;;;;;;13.87;84.22;96358.22;30001;982;1880;-67
2021/08/08 01:16:12;;;;;;;;;;;;;;;13.87;84.02;96367.19;30001;982;1859;-70
2021/08/08 01:16:44;;;;;;;;;;;;;;;13.86;84.03;96367.56;30001;983;1876;-71
2021/08/08 01:17:15;;;;;;;;;;;;;;;13.87;84.03;96369.94;30001;983;1876;-62
2021/08/08 01:17:47;;;;;;;;;;;;;;;13.86;84.06;96368.31;30001;983;1880;-62
2021/08/08 01:18:18;;;;;;;;;;;;;;;13.85;84.08;96366.75;30001;983;1875;-62
2021/08/08 01:18:50;;;;;;;;;;;;;;;13.85;83.96;96374.13;30001;983;1880;-69
2021/08/08 01:19:21;;;;;;;;;;;;;;;13.84;84.17;96370.59;30001;983;1876;-70
2021/08/08 01:19:57;;;;;;;;;;;;;;;13.83;84.24;96363.56;30001;983;1880;-61
2021/08/08 01:20:29;;;;;;;;;;;;;;;13.84;84.41;96370.59;30001;983;1876;-58
2021/08/08 01:21:01;;;;;;;;;;;;;;;13.84;84.25;96370.59;30001;982;1880;-60
2021/08/08 01:21:32;;;;;;;;;;;;;;;13.82;83.91;96367.41;30001;982;1858;-70
2021/08/08 01:22:06;;;;;;;;;;;;;;;13.83;83.87;96371.72;30001;982;1876;-61
2021/08/08 01:22:40;;;;;;;;;;;;;;;13.83;83.79;96369.00;30001;982;1876;-56
2021/08/08 01:23:13;;;;;;;;;;;;;;;13.83;83.51;96374.47;30001;982;1880;-62
2021/08/08 01:23:46;;;;;;;;;;;;;;;13.90;83.31;96374.72;30001;982;1876;-69
2021/08/08 01:24:17;;;;;;;;;;;;;;;13.90;83.36;96374.72;30001;984;1879;-62
2021/08/08 01:24:48;;;;;;;;;;;;;;;13.88;83.78;96379.72;30001;983;1875;-61
2021/08/08 01:25:20;;;;;;;;;;;;;;;13.89;83.60;96378.59;30001;983;1880;-59
2021/08/08 01:25:51;;;;;;;;;;;;;;;13.89;83.27;96370.41;30001;983;1876;-73
2021/08/08 01:26:23;;;;;;;;;;;;;;;13.90;83.22;96380.19;30001;983;1880;-70
2021/08/08 01:26:54;;;;;;;;;;;;;;;13.90;83.31;96374.72;30001;983;1858;-70
2021/08/08 01:27:26;;;;;;;;;;;;;;;13.87;83.40;96375.38;30001;983;1876;-62
2021/08/08 01:27:58;;;;;;;;;;;;;;;13.86;83.42;96373.00;30001;983;1876;-62
2021/08/08 01:28:29;;;;;;;;;;;;;;;13.85;83.92;96376.84;30001;982;1880;-62
2021/08/08 01:29:01;;;;;;;;;;;;;;;13.82;83.97;96372.84;30001;982;1876;-62
2021/08/08 01:29:33;;;;;;;;;;;;;;;13.82;83.95;96381.03;30001;982;1881;-68
2021/08/08 01:30:05;;;;;;;;;;;;;;;13.84;83.58;96381.50;30001;982;1876;-61
2021/08/08 01:30:35;;;;;;;;;;;;;;;13.83;83.21;96379.91;30001;982;1880;-70
2021/08/08 01:31:06;;;;;;;;;;;;;;;13.83;83.32;96377.19;30001;982;1876;-62
2021/08/08 01:31:38;;;;;;;;;;;;;;;13.84;83.61;96384.25;30001;985;1858;-60
2021/08/08 01:32:09;;;;;;;;;;;;;;;13.82;83.56;96378.31;30001;983;1880;-62
2021/08/08 01:32:40;;;;;;;;;;;;;;;13.82;83.57;96377.50;30001;983;1880;-71
2021/08/08 01:33:15;;;;;;;;;;;;;;;13.81;83.55;96384.09;30001;983;1884;-68
2021/08/08 01:33:46;;;;;;;;;;;;;;;13.80;83.53;96388.75;30001;983;1880;-59
2021/08/08 01:34:17;;;;;;;;;;;;;;;13.85;83.53;96387.78;30001;983;1885;-69
2021/08/08 01:34:48;;;;;;;;;;;;;;;13.87;83.25;96389.00;30001;983;1880;-67
2021/08/08 01:35:19;;;;;;;;;;;;;;;13.88;82.93;96393.34;30001;983;1867;-71
2021/08/08 01:35:51;;;;;;;;;;;;;;;13.88;82.82;96390.63;30001;983;1876;-59
2021/08/08 01:36:22;;;;;;;;;;;;;;;13.89;82.88;96389.50;30001;982;1885;-69
2021/08/08 01:36:53;;;;;;;;;;;;;;;13.89;82.82;96389.50;30001;982;1880;-72
2021/08/08 01:37:24;;;;;;;;;;;;;;;13.90;82.93;96380.19;30001;982;1885;-68
2021/08/08 01:37:55;;;;;;;;;;;;;;;13.93;82.57;96390.44;30001;982;1881;-70
2021/08/08 01:38:27;;;;;;;;;;;;;;;13.93;82.41;96386.91;30001;982;1885;-65
2021/08/08 01:39:01;;;;;;;;;;;;;;;13.93;82.44;96384.19;30001;982;1881;-70
2021/08/08 01:39:35;;;;;;;;;;;;;;;13.93;82.46;96385.00;30001;983;1884;-71
2021/08/08 01:40:12;;;;;;;;;;;;;;;13.93;82.56;96384.19;30001;983;1862;-71
2021/08/08 01:40:45;;;;;;;;;;;;;;;13.91;82.63;96387.25;30001;983;1880;-70
2021/08/08 01:41:17;;;;;;;;;;;;;;;13.91;82.85;96381.78;30001;983;1880;-71
2021/08/08 01:41:52;;;;;;;;;;;;;;;13.90;82.93;96382.91;30001;983;1885;-69
2021/08/08 01:42:24;;;;;;;;;;;;;;;13.92;82.95;96388.84;30001;983;1880;-68
2021/08/08 01:42:56;;;;;;;;;;;;;;;13.92;83.07;96383.38;30001;983;1884;-70
2021/08/08 01:43:28;;;;;;;;;;;;;;;13.93;82.65;96385.00;30001;982;1880;-71
2021/08/08 01:44:01;;;;;;;;;;;;;;;13.92;82.89;96380.66;30001;982;1885;-70
2021/08/08 01:44:35;;;;;;;;;;;;;;;13.92;82.94;96383.38;30001;982;1881;-70
2021/08/08 01:45:09;;;;;;;;;;;;;;;13.92;82.89;96386.13;30001;982;1868;-70
2021/08/08 01:45:41;;;;;;;;;;;;;;;13.92;83.15;96385.31;30001;982;1876;-69
2021/08/08 01:46:14;;;;;;;;;;;;;;;13.92;83.21;96383.38;30001;983;1884;-71
2021/08/08 01:46:47;;;;;;;;;;;;;;;13.92;83.09;96377.94;30001;983;1880;-69
2021/08/08 01:47:19;;;;;;;;;;;;;;;13.91;83.36;96375.53;30001;983;1884;-68
2021/08/08 01:47:53;;;;;;;;;;;;;;;13.93;83.29;96379.53;30001;983;1880;-67
2021/08/08 01:48:25;;;;;;;;;;;;;;;13.94;83.25;96380.34;30001;983;1884;-73
2021/08/08 01:48:56;;;;;;;;;;;;;;;13.94;83.02;96378.41;30001;983;1880;-68
2021/08/08 01:49:28;;;;;;;;;;;;;;;13.94;83.10;96381.13;30001;983;1885;-71
2021/08/08 01:50:00;;;;;;;;;;;;;;;13.96;82.44;96378.88;30001;983;1880;-67
2021/08/08 01:50:31;;;;;;;;;;;;;;;13.97;82.20;96382.41;30001;983;1867;-69
2021/08/08 01:51:02;;;;;;;;;;;;;;;13.96;82.27;96384.34;30001;982;1876;-69
2021/08/08 01:51:33;;;;;;;;;;;;;;;13.97;82.32;96383.22;30001;982;1885;-70
2021/08/08 01:52:06;;;;;;;;;;;;;;;13.97;82.26;96391.41;30001;982;1881;-70
2021/08/08 01:52:37;;;;;;;;;;;;;;;13.98;82.61;96384.81;30001;982;1885;-67
2021/08/08 01:53:09;;;;;;;;;;;;;;;14.00;82.10;96384.50;30001;982;1863;-67
2021/08/08 01:53:40;;;;;;;;;;;;;;;14.01;81.82;96386.88;30001;983;1880;-60
2021/08/08 01:54:11;;;;;;;;;;;;;;;14.01;81.87;96386.88;30001;983;1880;-70
2021/08/08 01:54:42;;;;;;;;;;;;;;;14.01;81.96;96386.88;30001;983;1884;-69
2021/08/08 01:55:16;;;;;;;;;;;;;;;14.00;82.08;96379.84;30001;978;1862;-68
2021/08/08 01:55:47;;;;;;;;;;;;;;;13.99;82.18;96380.97;30001;983;1880;-70
2021/08/08 01:56:18;;;;;;;;;;;;;;;13.97;82.34;96380.47;30001;983;1880;-71
2021/08/08 01:56:49;;;;;;;;;;;;;;;13.96;82.80;96389.00;30001;983;1884;-70
2021/08/08 01:57:20;;;;;;;;;;;;;;;13.94;82.83;96386.59;30001;983;1880;-71
2021/08/08 01:57:51;;;;;;;;;;;;;;;13.92;82.74;96388.84;30001;983;1885;-70
2021/08/08 01:58:27;;;;;;;;;;;;;;;13.92;82.82;96386.13;30001;983;1880;-70
2021/08/08 01:58:58;;;;;;;;;;;;;;;13.92;83.04;96386.13;30001;982;1885;-69
2021/08/08 01:59:28;;;;;;;;;;;;;;;13.90;82.92;96379.38;30001;982;1863;-71
2021/08/08 01:59:59;;;;;;;;;;;;;;;13.90;83.04;96387.56;30001;982;1880;-69
2021/08/08 02:00:30;;;;;;;;;;;;;;;13.89;83.08;96380.50;30001;982;1881;-71
2021/08/08 02:01:01;;;;;;;;;;;;;;;13.88;83.26;96381.63;30001;982;1885;-62
2021/08/08 02:01:33;;;;;;;;;;;;;;;13.86;83.10;96379.22;30001;983;1880;-71
2021/08/08 02:02:10;;;;;;;;;;;;;;;13.85;83.20;96383.13;30001;983;1884;-69
2021/08/08 02:02:51;;;;;;;;;;;;;;;13.84;83.40;96386.97;30001;983;1880;-70
2021/08/08 02:03:32;;;;;;;;;;;;;;;13.82;83.66;96386.50;30001;983;1867;-71
2021/08/08 02:04:13;;;;;;;;;;;;;;;13.81;83.68;96393.06;30001;983;1876;-72
2021/08/08 02:04:45;;;;;;;;;;;;;;;13.83;82.77;96381.84;30001;983;1885;-72
2021/08/08 02:05:18;;;;;;;;;;;;;;;13.82;82.66;96389.22;30001;983;1880;-72
2021/08/08 02:05:49;;;;;;;;;;;;;;;13.82;82.69;96393.88;30001;983;1885;-64
2021/08/08 02:06:24;;;;;;;;;;;;;;;13.80;82.75;96396.91;30001;986;1880;-72
2021/08/08 02:06:55;;;;;;;;;;;;;;;13.78;83.20;96393.72;30001;982;1885;-71
2021/08/08 02:07:25;;;;;;;;;;;;;;;13.76;83.25;96390.50;30001;982;1863;-70
2021/08/08 02:07:56;;;;;;;;;;;;;;;13.74;83.27;96393.56;30001;982;1880;-71
2021/08/08 02:08:27;;;;;;;;;;;;;;;13.73;83.60;96388.44;30001;982;1880;-71
2021/08/08 02:08:58;;;;;;;;;;;;;;;13.71;83.80;96393.41;30001;983;1884;-72
2021/08/08 02:09:29;;;;;;;;;;;;;;;13.69;83.67;96392.94;30001;983;1880;-69
2021/08/08 02:10:00;;;;;;;;;;;;;;;13.68;83.87;96389.41;30001;983;1867;-73
2021/08/08 02:10:30;;;;;;;;;;;;;;;13.68;84.05;96394.06;30001;983;1875;-71
2021/08/08 02:11:02;;;;;;;;;;;;;;;13.67;84.30;96387.00;30001;983;1884;-71
2021/08/08 02:11:33;;;;;;;;;;;;;;;13.64;84.18;96391.19;30001;983;1880;-70
2021/08/08 02:12:05;;;;;;;;;;;;;;;13.61;84.33;96388.28;30001;983;1885;-70
2021/08/08 02:12:36;;;;;;;;;;;;;;;13.60;84.50;96392.16;30001;983;1880;-69
2021/08/08 02:13:07;;;;;;;;;;;;;;;13.60;84.69;96392.16;30001;983;1885;-70
2021/08/08 02:13:38;;;;;;;;;;;;;;;13.59;84.83;96396.00;30001;983;1880;-70
2021/08/08 02:14:09;;;;;;;;;;;;;;;13.56;84.90;96386.53;30001;982;1867;-72
2021/08/08 02:14:39;;;;;;;;;;;;;;;13.56;85.07;96393.91;30001;982;1876;-71
2021/08/08 02:15:11;;;;;;;;;;;;;;;13.56;85.07;96391.19;30001;982;1885;-71
2021/08/08 02:15:41;;;;;;;;;;;;;;;13.55;85.15;96389.59;30001;982;1881;-70
2021/08/08 02:16:12;;;;;;;;;;;;;;;13.54;85.40;96396.16;30001;960;1910;-71
2021/08/08 02:16:43;;;;;;;;;;;;;;;13.53;85.10;96398.09;30001;983;1880;-72
2021/08/08 02:17:14;;;;;;;;;;;;;;;13.52;85.35;96396.47;30001;983;1884;-71
2021/08/08 02:17:45;;;;;;;;;;;;;;;13.52;85.48;96401.13;30001;983;1880;-71
2021/08/08 02:18:17;;;;;;;;;;;;;;;13.50;85.57;96397.97;30001;983;1884;-72
2021/08/08 02:18:47;;;;;;;;;;;;;;;13.49;85.61;96396.34;30001;983;1880;-73
2021/08/08 02:19:21;;;;;;;;;;;;;;;13.48;85.57;96394.75;30001;983;1867;-72
2021/08/08 02:19:51;;;;;;;;;;;;;;;13.47;85.48;96393.94;30001;983;1876;-71
2021/08/08 02:20:22;;;;;;;;;;;;;;;13.47;85.50;96409.50;30001;982;1885;-70
2021/08/08 02:20:53;;;;;;;;;;;;;;;13.45;85.47;96400.84;30001;982;1880;-62
2021/08/08 02:21:26;;;;;;;;;;;;;;;13.44;85.61;96399.25;30001;982;1885;-71
2021/08/08 02:21:57;;;;;;;;;;;;;;;13.45;85.46;96400.84;30001;982;1880;-71
2021/08/08 02:22:28;;;;;;;;;;;;;;;13.46;85.83;96405.16;30001;982;1885;-72
2021/08/08 02:22:58;;;;;;;;;;;;;;;13.44;85.65;96400.03;30001;982;1881;-72
2021/08/08 02:23:29;;;;;;;;;;;;;;;13.44;85.38;96399.25;30001;982;1885;-72
2021/08/08 02:24:00;;;;;;;;;;;;;;;13.46;85.23;96407.91;30001;983;1862;-71
2021/08/08 02:24:31;;;;;;;;;;;;;;;13.45;84.96;96406.28;30001;983;1880;-63
2021/08/08 02:25:03;;;;;;;;;;;;;;;13.43;84.82;96403.09;30001;983;1880;-71
2021/08/08 02:25:33;;;;;;;;;;;;;;;13.40;84.88;96402.59;30001;983;1884;-71
2021/08/08 02:26:05;;;;;;;;;;;;;;;13.39;84.68;96406.47;30001;983;1880;-71
2021/08/08 02:26:35;;;;;;;;;;;;;;;13.39;84.95;96408.38;30001;983;1821;-70
2021/08/08 02:27:06;;;;;;;;;;;;;;;13.38;85.03;96413.03;30001;983;1880;-72
2021/08/08 02:27:37;;;;;;;;;;;;;;;13.38;84.95;96407.59;30001;983;1885;-70
2021/08/08 02:28:09;;;;;;;;;;;;;;;13.38;84.95;96406.78;30001;982;1863;-71
2021/08/08 02:28:40;;;;;;;;;;;;;;;13.37;85.16;96411.44;30001;982;1880;-62
2021/08/08 02:29:10;;;;;;;;;;;;;;;13.37;85.08;96403.25;30001;982;1880;-71
2021/08/08 02:29:43;;;;;;;;;;;;;;;13.37;85.08;96405.97;30001;982;1885;-71
2021/08/08 02:30:14;;;;;;;;;;;;;;;13.38;85.16;96401.31;30001;982;1863;-62
2021/08/08 02:30:46;;;;;;;;;;;;;;;13.38;85.38;96407.59;30001;982;1880;-63
2021/08/08 02:31:18;;;;;;;;;;;;;;;13.39;84.99;96403.72;30001;972;1899;-71
2021/08/08 02:31:49;;;;;;;;;;;;;;;13.43;84.75;96409.34;30001;983;1884;-70
2021/08/08 02:32:20;;;;;;;;;;;;;;;13.45;84.22;96406.28;30001;983;1880;-73
2021/08/08 02:32:51;;;;;;;;;;;;;;;13.47;84.17;96404.84;30002;983;1884;-65
2021/08/08 02:33:22;;;;;;;;;;;;;;;13.48;84.18;96409.19;30002;983;1880;-71
2021/08/08 02:33:53;;;;;;;;;;;;;;;13.49;84.08;96409.97;30002;983;1884;-67
2021/08/08 02:34:23;;;;;;;;;;;;;;;13.51;83.92;96407.72;30002;983;1880;-71
2021/08/08 02:34:58;;;;;;;;;;;;;;;13.52;83.83;96396.47;30002;983;1884;-65
2021/08/08 02:35:29;;;;;;;;;;;;;;;13.56;83.79;96404.81;30002;982;1863;-71
2021/08/08 02:36:00;;;;;;;;;;;;;;;13.55;83.75;96400.47;30002;982;1880;-66
2021/08/08 02:36:31;;;;;;;;;;;;;;;13.57;83.58;96403.69;30002;982;1880;-73
2021/08/08 02:37:03;;;;;;;;;;;;;;;13.60;83.45;96397.59;30002;982;1885;-75
2021/08/08 02:37:35;;;;;;;;;;;;;;;13.62;83.46;96401.59;30002;982;1880;-73
2021/08/08 02:38:07;;;;;;;;;;;;;;;13.63;83.36;96397.75;30002;982;1885;-73
2021/08/08 02:38:38;;;;;;;;;;;;;;;13.66;82.98;96396.31;30002;982;1880;-75
2021/08/08 02:39:09;;;;;;;;;;;;;;;13.66;82.98;96396.31;30002;983;1884;-67
2021/08/08 02:39:40;;;;;;;;;;;;;;;13.70;82.90;96400.78;30002;983;1880;-73
2021/08/08 02:40:12;;;;;;;;;;;;;;;13.70;82.54;96397.25;30002;983;1867;-74
2021/08/08 02:40:43;;;;;;;;;;;;;;;13.68;82.52;96405.75;30002;968;1799;-71
2021/08/08 02:41:14;;;;;;;;;;;;;;;13.66;82.98;96409.94;30002;983;1885;-71
2021/08/08 02:41:44;;;;;;;;;;;;;;;13.64;83.18;96409.47;30002;983;1880;-73
2021/08/08 02:42:15;;;;;;;;;;;;;;;13.62;83.39;96408.97;30002;987;1876;-66
2021/08/08 02:42:46;;;;;;;;;;;;;;;13.62;83.16;96411.69;30002;968;1833;-73
2021/08/08 02:43:17;;;;;;;;;;;;;;;13.62;83.26;96406.25;30002;982;1863;-71
2021/08/08 02:43:48;;;;;;;;;;;;;;;13.61;83.57;96410.09;30002;980;1880;-70
2021/08/08 02:44:19;;;;;;;;;;;;;;;13.61;83.71;96415.56;30002;982;1880;-69
2021/08/08 02:44:49;;;;;;;;;;;;;;;13.58;83.65;96403.37;30002;982;1885;-60
2021/08/08 02:45:20;;;;;;;;;;;;;;;13.59;84.06;96406.91;30002;982;1880;-71
2021/08/08 02:45:54;;;;;;;;;;;;;;;13.60;83.78;96406.56;30002;982;1885;-72
2021/08/08 02:46:25;;;;;;;;;;;;;;;13.62;83.88;96406.25;30002;983;1880;-64
2021/08/08 02:46:56;;;;;;;;;;;;;;;13.62;83.64;96411.69;30002;983;1884;-73
2021/08/08 02:47:30;;;;;;;;;;;;;;;13.60;83.55;96409.28;30002;983;1862;-74
2021/08/08 02:48:00;;;;;;;;;;;;;;;13.60;83.64;96403.03;30002;983;1880;-72
2021/08/08 02:48:32;;;;;;;;;;;;;;;13.60;83.46;96397.59;30002;983;1880;-74
2021/08/08 02:49:04;;;;;;;;;;;;;;;13.61;83.50;96399.19;30002;983;1884;-74
2021/08/08 02:49:35;;;;;;;;;;;;;;;13.61;83.29;96399.19;30002;983;1880;-71
2021/08/08 02:50:06;;;;;;;;;;;;;;;13.61;83.70;96399.19;30002;983;1885;-71